Latest Coastal Weather Observations for Burnie Port

IDT60701

Issued at 4:52 am EST Thursday 3 September 2026 (issued every 10 minutes, with the page automatically refreshed every 10 minutes)

About coastal observations | Map of coastal stations | Coastal observations for TAS | Marine services | Other Formats
Station Details ID: 091344 Name: BURNIE NTC AWS Lat: -41.05 Lon: 145.91 Height: 0.0 m
Data from the previous 72 hours. | See also: Recent months for locations in Tasmania
Date/Time
EST
Wind Sea
Height
m
Swell Vis
km
Cloud Weather Temp
°C
Press
MSL
hPa
Rain since
9am
mm
Dir  Spd
kts
Gust
kts
Height
m
Period
s
Dir
03/04:30am NW 24 31 - - - - - - - 12.4 999.0 -
03/04:23am NW 26 35 - - - - - - - 12.4 999.1 -
03/04:13am NW 24 34 - - - - - - - 12.8 999.3 -
03/04:00am NW 25 29 - - - - - - - 12.7 999.5 -
03/03:30am NW 20 28 - - - - - - - 12.6 1000.0 -
03/03:00am WNW 13 20 - - - - - - - 12.2 1000.7 -
03/02:30am WNW 12 21 - - - - - - - 12.6 1001.3 -
03/02:24am WNW 11 18 - - - - - - - 12.3 1001.5 -
03/02:00am WNW 17 30 - - - - - - - 11.9 1001.8 -
03/01:57am WNW 16 30 - - - - - - - 12.0 1001.9 -
03/01:35am WNW 18 25 - - - - - - - 12.2 1002.2 -
03/01:30am NW 20 26 - - - - - - - 12.5 1002.2 -
03/01:23am NW 23 34 - - - - - - - 12.7 1002.2 -
03/01:00am NW 22 30 - - - - - - - 12.7 1002.5 -
03/12:47am NW 24 31 - - - - - - - 12.2 1002.8 -
03/12:43am NW 25 31 - - - - - - - 12.2 1002.8 -
03/12:33am NW 15 30 - - - - - - - 12.6 1003.0 -
03/12:30am WNW 12 19 - - - - - - - 12.5 1003.0 -
03/12:01am WNW 11 18 - - - - - - - 12.1 1003.6 -
03/12:00am WNW 11 18 - - - - - - - 12.0 1003.6 -
 
Date/Time
EST
Wind Sea
Height
m
Swell Vis
km
Cloud Weather Temp
°C
Press
MSL
hPa
Rain since
9am
mm
Dir  Spd
kts
Gust
kts
Height
m
Period
s
Dir
02/11:50pm WNW 17 27 - - - - - - - 12.1 1003.8 -
02/11:30pm NW 18 25 - - - - - - - 12.5 1004.0 -
02/11:00pm WNW 12 19 - - - - - - - 12.1 1004.7 -
02/10:30pm WNW 13 23 - - - - - - - 11.8 1005.2 -
02/10:00pm WNW 12 17 - - - - - - - 11.7 1005.5 -
02/09:30pm WNW 9 17 - - - - - - - 11.3 1005.8 -
02/09:00pm WNW 8 13 - - - - - - - 11.7 1006.1 -
02/08:30pm WNW 9 14 - - - - - - - 11.4 1006.5 -
02/08:00pm WNW 8 14 - - - - - - - 11.9 1006.5 -
02/07:30pm WNW 10 15 - - - - - - - 11.8 1006.5 -
02/07:00pm WNW 14 18 - - - - - - - 12.1 1006.5 -
02/06:30pm WNW 7 12 - - - - - - - 11.6 1006.7 -
02/06:00pm NW 19 23 - - - - - - - 11.4 1006.8 -
02/05:30pm WNW 10 16 - - - - - - - 12.6 1006.8 -
02/05:00pm NW 13 18 - - - - - - - 12.4 1006.7 -
02/04:30pm NW 12 15 - - - - - - - 12.4 1006.8 -
02/04:00pm WNW 8 13 - - - - - - - 11.9 1007.1 -
02/03:30pm WNW 11 18 - - - - - - - 11.5 1007.4 -
02/03:00pm WNW 11 15 - - - - - - - 12.4 1007.5 -
02/02:30pm WNW 15 23 - - - - - - - 12.2 1007.6 -
02/02:00pm WNW 12 17 - - - - - - - 12.9 1007.7 -
02/01:30pm W 10 17 - - - - - - - 12.7 1008.1 -
02/01:24pm WNW 10 17 - - - - - - - 12.7 1008.2 -
02/01:13pm WNW 15 25 - - - - - - - 12.4 1008.4 -
02/01:00pm WNW 18 27 - - - - - - - 12.3 1008.5 -
02/12:30pm NW 16 21 - - - - - - - 12.5 1008.8 -
02/12:00pm WNW 12 17 - - - - - - - 12.9 1008.9 -
02/11:30am W 10 17 - - - - - - - 12.9 1009.1 -
02/11:00am WNW 11 14 - - - - - - - 12.7 1009.3 -
02/10:30am W 6 10 - - - - - - - 12.8 1009.5 -
02/10:00am W 6 13 - - - - - - - 12.5 1009.7 -
02/09:30am W 8 18 - - - - - - - 11.7 1010.0 -
02/09:00am W 6 12 - - - - - - - 11.3 1009.9 -
02/08:30am WNW 5 9 - - - - - - - 10.5 1009.9 -
02/08:00am WNW 4 8 - - - - - - - 10.0 1009.5 -
02/07:30am WNW 4 6 - - - - - - - 9.6 1009.4 -
02/07:00am WNW 4 7 - - - - - - - 9.3 1009.3 -
02/06:30am WNW 4 7 - - - - - - - 9.2 1008.8 -
02/06:00am W 4 7 - - - - - - - 9.1 1008.8 -
02/05:30am W 4 6 - - - - - - - 8.9 1008.6 -
02/05:00am WNW 5 7 - - - - - - - 9.0 1008.5 -
02/04:30am W 8 11 - - - - - - - 9.1 1008.2 -
02/04:00am WNW 7 10 - - - - - - - 9.2 1007.9 -
02/03:30am WNW 6 9 - - - - - - - 9.3 1007.6 -
02/03:00am WNW 6 10 - - - - - - - 9.4 1007.9 -
02/02:30am WNW 6 9 - - - - - - - 9.8 1008.0 -
02/02:00am WNW 6 11 - - - - - - - 10.0 1007.7 -
02/01:30am WNW 8 11 - - - - - - - 10.5 1007.5 -
02/01:00am W 9 13 - - - - - - - 10.9 1007.2 -
02/12:30am W 10 17 - - - - - - - 11.4 1006.9 -
02/12:00am W 9 15 - - - - - - - 11.9 1006.7 -
 
Date/Time
EST
Wind Sea
Height
m
Swell Vis
km
Cloud Weather Temp
°C
Press
MSL
hPa
Rain since
9am
mm
Dir  Spd
kts
Gust
kts
Height
m
Period
s
Dir
01/11:30pm WNW 7 11 - - - - - - - 12.3 1006.5 -
01/11:00pm WNW 7 11 - - - - - - - 12.7 1006.4 -
01/10:30pm W 7 11 - - - - - - - 13.4 1006.1 -
01/10:00pm WNW 8 12 - - - - - - - 13.4 1006.3 -
01/09:36pm WNW 18 26 - - - - - - - 13.2 1006.4 -
01/09:30pm NW 22 28 - - - - - - - 13.1 1006.3 -
01/09:00pm NW 23 29 - - - - - - - 13.4 1006.3 -
01/08:30pm NW 22 29 - - - - - - - 13.3 1006.2 -
01/08:00pm NW 20 25 - - - - - - - 13.2 1006.4 -
01/07:30pm NW 21 26 - - - - - - - 13.7 1006.3 -
01/07:00pm NW 23 28 - - - - - - - 13.5 1006.6 -
01/06:30pm NW 21 27 - - - - - - - 13.6 1006.3 -
01/06:00pm NW 14 17 - - - - - - - 13.8 1006.4 -
01/05:30pm NW 17 24 - - - - - - - 14.1 1006.6 -
01/05:00pm WNW 14 22 - - - - - - - 14.3 1007.0 -
01/04:30pm NW 13 18 - - - - - - - 14.4 1007.3 -
01/04:00pm NW 12 15 - - - - - - - 14.1 1007.8 -
01/03:30pm NW 13 16 - - - - - - - 14.0 1008.2 -
01/03:00pm NW 7 9 - - - - - - - 13.5 1008.6 -
01/02:30pm NW 8 11 - - - - - - - 13.5 1008.9 -
01/02:00pm N 3 6 - - - - - - - 13.0 1009.5 -
01/01:30pm CALM 0 3 - - - - - - - 12.8 1010.2 -
01/01:00pm E 4 6 - - - - - - - 12.4 1010.9 -
01/12:30pm E 5 6 - - - - - - - 12.0 1012.0 -
01/12:00pm E 5 6 - - - - - - - 11.8 1012.8 -
01/11:30am E 4 5 - - - - - - - 11.7 1013.6 -
01/11:00am E 5 6 - - - - - - - 11.4 1014.3 -
01/10:30am E 5 6 - - - - - - - 11.3 1014.9 -
01/10:00am E 6 7 - - - - - - - 11.1 1015.4 -
01/09:30am ESE 4 5 - - - - - - - 11.1 1015.7 -
01/09:00am S 5 7 - - - - - - - 10.6 1016.4 -
01/08:30am S 6 7 - - - - - - - 10.1 1017.0 -
01/08:00am SSW 5 6 - - - - - - - 9.4 1017.3 -
01/07:30am SSW 6 8 - - - - - - - 9.0 1017.6 -
01/07:00am SSW 5 7 - - - - - - - 9.0 1018.0 -
01/06:30am SSW 4 5 - - - - - - - 8.9 1017.9 -
01/06:00am S 7 9 - - - - - - - 8.8 1018.0 -
01/05:30am SSE 7 9 - - - - - - - 8.4 1018.4 -
01/05:00am SW 4 5 - - - - - - - 8.8 1019.1 -
01/04:30am SW 4 6 - - - - - - - 8.7 1019.4 -
01/04:00am SW 5 8 - - - - - - - 7.9 1020.0 -
01/03:30am SSW 4 7 - - - - - - - 7.0 1020.3 -
01/03:00am SSW 4 6 - - - - - - - 6.7 1020.6 -
01/02:30am SW 5 7 - - - - - - - 7.3 1021.1 -
01/02:00am WSW 4 8 - - - - - - - 7.7 1021.8 -
01/01:30am W 5 8 - - - - - - - 7.7 1022.3 -
01/01:00am W 4 7 - - - - - - - 7.9 1022.3 -
01/12:30am W 2 4 - - - - - - - 8.1 1022.4 -
01/12:00am WNW 5 10 - - - - - - - 8.3 1022.6 -
 
Date/Time
EST
Wind Sea
Height
m
Swell Vis
km
Cloud Weather Temp
°C
Press
MSL
hPa
Rain since
9am
mm
Dir  Spd
kts
Gust
kts
Height
m
Period
s
Dir
31/11:30pm WNW 5 8 - - - - - - - 9.0 1023.0 -
31/11:00pm WNW 5 8 - - - - - - - 9.0 1023.6 -
31/10:30pm WNW 7 10 - - - - - - - 9.2 1023.7 -
31/10:00pm WNW 7 10 - - - - - - - 9.6 1024.0 -
31/09:30pm WNW 8 11 - - - - - - - 10.0 1024.1 -
31/09:00pm WNW 9 13 - - - - - - - 10.3 1024.1 -
31/08:30pm WNW 9 14 - - - - - - - 10.7 1024.1 -
31/08:00pm WNW 9 13 - - - - - - - 10.9 1024.1 -
31/07:30pm WNW 9 16 - - - - - - - 11.6 1024.2 -
31/07:00pm WNW 10 14 - - - - - - - 12.2 1024.2 -
31/06:30pm WNW 9 14 - - - - - - - 12.8 1024.3 -
31/06:00pm WNW 10 15 - - - - - - - 13.6 1024.2 -
31/05:30pm NW 13 17 - - - - - - - 13.7 1024.3 -
31/05:00pm NW 20 25 - - - - - - - 13.1 1024.3 -
31/04:30pm NW 22 25 - - - - - - - 12.6 1024.5 -
31/04:00pm NW 21 25 - - - - - - - 12.9 1024.7 -
31/03:30pm NW 19 22 - - - - - - - 13.2 1024.9 -
31/03:00pm NW 19 21 - - - - - - - 13.4 1025.0 -
31/02:30pm NW 17 20 - - - - - - - 13.4 1025.3 -
31/02:00pm NNW 14 18 - - - - - - - 13.4 1025.5 -
31/01:30pm NNW 14 17 - - - - - - - 13.4 1026.0 -
31/01:00pm NNW 11 15 - - - - - - - 13.7 1026.4 -
31/12:30pm NW 14 16 - - - - - - - 13.9 1026.8 -
31/12:00pm NW 15 17 - - - - - - - 13.6 1027.2 -
31/11:30am NW 13 16 - - - - - - - 13.6 1027.4 -
31/11:00am NW 12 15 - - - - - - - 13.6 1027.8 -
31/10:30am WNW 8 12 - - - - - - - 14.0 1028.1 -
31/10:00am W 5 9 - - - - - - - 13.4 1028.3 -
31/09:30am NW 8 13 - - - - - - - 12.4 1028.6 -
31/09:00am NW 7 11 - - - - - - - 11.9 1028.6 -
31/08:30am WNW 5 9 - - - - - - - 11.2 1028.6 -
31/08:00am WNW 6 10 - - - - - - - 10.2 1028.7 -
31/07:30am NW 9 12 - - - - - - - 9.7 1028.5 -
31/07:00am NW 6 10 - - - - - - - 9.7 1028.0 -
31/06:30am NW 3 5 - - - - - - - 9.5 1028.1 -
31/06:00am WNW 4 7 - - - - - - - 9.4 1028.1 -
31/05:30am WNW 5 7 - - - - - - - 9.4 1028.1 -
31/05:00am WNW 6 9 - - - - - - - 9.5 1028.1 -

Other formats

Comma delimited format used in spreadsheet applications
http://www.bom.gov.au/fwo/IDT60701/IDT60701.95963.axf

JavaScript Object Notation format (JSON) in row-major order
http://www.bom.gov.au/fwo/IDT60701/IDT60701.95963.json

Data quality

Most of these data are generated automatically and are frequently updated. Quality checks on data are not normally performed. It is possible for incorrect values to appear. Refer to information at About Latest Weather Observations and please check the disclaimer before using these data.